Borger, Texas
Current Conditions -  °F | °C
As of 6:51 PM on Saturday 25 Oct 2014 (Local Time) from KBGD Reporting Station
Clear Clear  
Wind Chill: 83°   Ceiling: Unl
Heat Index: 83°   Visibility: 10mi
Dew Point: 45°   Wind: 10mph
Humidity: 26%   Direction: 180°S
Pressure: 30.03"   Gusts: NA
Location:  35.67°N, 101.39°W
Report Text: KBGD 252351Z AUTO 18009KT 10SM CLR 28/07 A3003 RMK AO2 SLP136 T02830072 10317 20283 56010
Loading
Personal Weather Stations






























Interactive Weather Map
Tropical Storm Tracking
New forecast layout! Learn more

10-Day Weather Forecast

Advertisements
Track Severe Weather on mobile